sensor_id;sensor_type;location;lat;lon;timestamp;P1;durP1;ratioP1;P2;durP2;ratioP2
78612;SDS011;67933;51.060;3.638;2023-05-10T00:00:46;32.78;;;13.77;;
78612;SDS011;67933;51.060;3.638;2023-05-10T00:03:12;29.02;;;11.77;;
78612;SDS011;67933;51.060;3.638;2023-05-10T00:05:37;27.33;;;12.90;;
78612;SDS011;67933;51.060;3.638;2023-05-10T00:08:03;24.73;;;12.73;;
78612;SDS011;67933;51.060;3.638;2023-05-10T00:10:28;26.45;;;12.27;;
78612;SDS011;67933;51.060;3.638;2023-05-10T00:12:54;31.00;;;12.27;;
78612;SDS011;67933;51.060;3.638;2023-05-10T00:15:19;30.60;;;11.45;;
78612;SDS011;67933;51.060;3.638;2023-05-10T00:17:45;28.67;;;13.10;;
78612;SDS011;67933;51.060;3.638;2023-05-10T00:20:10;26.20;;;11.38;;
78612;SDS011;67933;51.060;3.638;2023-05-10T00:22:36;25.60;;;12.00;;
78612;SDS011;67933;51.060;3.638;2023-05-10T00:25:01;26.80;;;11.27;;
78612;SDS011;67933;51.060;3.638;2023-05-10T00:27:27;24.38;;;11.38;;
78612;SDS011;67933;51.060;3.638;2023-05-10T00:29:52;29.88;;;13.43;;
78612;SDS011;67933;51.060;3.638;2023-05-10T00:32:17;28.70;;;13.18;;
78612;SDS011;67933;51.060;3.638;2023-05-10T00:34:43;29.33;;;13.05;;
78612;SDS011;67933;51.060;3.638;2023-05-10T00:37:08;31.50;;;14.40;;
78612;SDS011;67933;51.060;3.638;2023-05-10T00:39:34;32.35;;;13.32;;
78612;SDS011;67933;51.060;3.638;2023-05-10T00:41:59;37.45;;;14.32;;
78612;SDS011;67933;51.060;3.638;2023-05-10T00:44:25;39.55;;;14.85;;
78612;SDS011;67933;51.060;3.638;2023-05-10T00:46:50;37.97;;;15.57;;
78612;SDS011;67933;51.060;3.638;2023-05-10T00:49:16;38.63;;;14.88;;
78612;SDS011;67933;51.060;3.638;2023-05-10T00:51:41;38.45;;;15.20;;
78612;SDS011;67933;51.060;3.638;2023-05-10T00:54:08;42.03;;;16.00;;
78612;SDS011;67933;51.060;3.638;2023-05-10T00:56:36;40.40;;;17.63;;
78612;SDS011;67933;51.060;3.638;2023-05-10T00:59:01;35.53;;;15.63;;
78612;SDS011;67933;51.060;3.638;2023-05-10T01:01:28;37.75;;;15.95;;
78612;SDS011;67933;51.060;3.638;2023-05-10T01:03:54;40.80;;;16.77;;
78612;SDS011;67933;51.060;3.638;2023-05-10T01:06:20;39.55;;;16.45;;
78612;SDS011;67933;51.060;3.638;2023-05-10T01:08:45;37.22;;;16.27;;
78612;SDS011;67933;51.060;3.638;2023-05-10T01:11:12;34.72;;;15.80;;
78612;SDS011;67933;51.060;3.638;2023-05-10T01:13:38;37.95;;;14.70;;
78612;SDS011;67933;51.060;3.638;2023-05-10T01:16:07;34.75;;;14.65;;
78612;SDS011;67933;51.060;3.638;2023-05-10T01:18:33;32.97;;;14.18;;
78612;SDS011;67933;51.060;3.638;2023-05-10T01:23:50;33.15;;;15.05;;
78612;SDS011;67933;51.060;3.638;2023-05-10T01:37:21;29.75;;;13.57;;
78612;SDS011;67933;51.060;3.638;2023-05-10T01:39:55;35.05;;;14.55;;
78612;SDS011;67933;51.060;3.638;2023-05-10T01:42:29;33.78;;;14.05;;
78612;SDS011;67933;51.060;3.638;2023-05-10T01:47:52;34.00;;;15.30;;
78612;SDS011;67933;51.060;3.638;2023-05-10T01:50:24;35.53;;;14.85;;
78612;SDS011;67933;51.060;3.638;2023-05-10T01:52:55;34.10;;;14.65;;
78612;SDS011;67933;51.060;3.638;2023-05-10T01:55:24;33.38;;;15.65;;
78612;SDS011;67933;51.060;3.638;2023-05-10T01:57:56;34.00;;;14.60;;
78612;SDS011;67933;51.060;3.638;2023-05-10T02:00:28;35.80;;;14.98;;
78612;SDS011;67933;51.060;3.638;2023-05-10T02:02:54;32.10;;;14.82;;
78612;SDS011;67933;51.060;3.638;2023-05-10T02:05:21;35.00;;;13.40;;
78612;SDS011;67933;51.060;3.638;2023-05-10T02:07:47;38.60;;;14.68;;
78612;SDS011;67933;51.060;3.638;2023-05-10T02:10:15;32.97;;;15.23;;
78612;SDS011;67933;51.060;3.638;2023-05-10T02:12:42;29.60;;;13.20;;
78612;SDS011;67933;51.060;3.638;2023-05-10T02:15:11;35.25;;;15.52;;
78612;SDS011;67933;51.060;3.638;2023-05-10T02:17:39;31.20;;;14.10;;
78612;SDS011;67933;51.060;3.638;2023-05-10T02:20:07;32.20;;;13.77;;
78612;SDS011;67933;51.060;3.638;2023-05-10T02:22:33;32.65;;;14.45;;
78612;SDS011;67933;51.060;3.638;2023-05-10T02:25:00;29.88;;;11.63;;
78612;SDS011;67933;51.060;3.638;2023-05-10T02:27:28;33.88;;;13.85;;
78612;SDS011;67933;51.060;3.638;2023-05-10T02:29:55;31.80;;;13.57;;
78612;SDS011;67933;51.060;3.638;2023-05-10T02:32:22;33.25;;;13.80;;
78612;SDS011;67933;51.060;3.638;2023-05-10T02:37:17;32.10;;;12.13;;
78612;SDS011;67933;51.060;3.638;2023-05-10T02:39:45;31.92;;;13.82;;
78612;SDS011;67933;51.060;3.638;2023-05-10T02:42:13;30.67;;;13.52;;
78612;SDS011;67933;51.060;3.638;2023-05-10T02:44:42;35.30;;;13.45;;
78612;SDS011;67933;51.060;3.638;2023-05-10T02:49:35;25.27;;;12.50;;
78612;SDS011;67933;51.060;3.638;2023-05-10T02:52:01;29.98;;;13.15;;
78612;SDS011;67933;51.060;3.638;2023-05-10T02:54:33;32.30;;;14.68;;
78612;SDS011;67933;51.060;3.638;2023-05-10T02:57:15;26.52;;;12.63;;
78612;SDS011;67933;51.060;3.638;2023-05-10T02:59:44;30.20;;;13.13;;
78612;SDS011;67933;51.060;3.638;2023-05-10T03:02:10;27.13;;;13.00;;
78612;SDS011;67933;51.060;3.638;2023-05-10T03:04:37;28.52;;;13.25;;
78612;SDS011;67933;51.060;3.638;2023-05-10T03:07:03;31.45;;;12.73;;
78612;SDS011;67933;51.060;3.638;2023-05-10T03:09:28;32.13;;;13.05;;
78612;SDS011;67933;51.060;3.638;2023-05-10T03:12:03;36.15;;;14.43;;
78612;SDS011;67933;51.060;3.638;2023-05-10T03:14:45;28.63;;;13.10;;
78612;SDS011;67933;51.060;3.638;2023-05-10T03:17:37;30.48;;;14.73;;
78612;SDS011;67933;51.060;3.638;2023-05-10T03:20:31;29.48;;;12.27;;
78612;SDS011;67933;51.060;3.638;2023-05-10T03:23:04;30.42;;;13.55;;
78612;SDS011;67933;51.060;3.638;2023-05-10T03:25:36;27.10;;;12.25;;
78612;SDS011;67933;51.060;3.638;2023-05-10T03:28:02;31.33;;;13.70;;
78612;SDS011;67933;51.060;3.638;2023-05-10T03:30:30;28.50;;;12.95;;
78612;SDS011;67933;51.060;3.638;2023-05-10T03:32:56;31.73;;;12.90;;
78612;SDS011;67933;51.060;3.638;2023-05-10T03:35:22;25.98;;;12.07;;
78612;SDS011;67933;51.060;3.638;2023-05-10T03:37:48;28.45;;;12.70;;
78612;SDS011;67933;51.060;3.638;2023-05-10T03:40:14;29.05;;;12.40;;
78612;SDS011;67933;51.060;3.638;2023-05-10T03:42:39;26.85;;;12.93;;
78612;SDS011;67933;51.060;3.638;2023-05-10T03:45:05;31.25;;;13.18;;
78612;SDS011;67933;51.060;3.638;2023-05-10T03:47:31;28.95;;;13.43;;
78612;SDS011;67933;51.060;3.638;2023-05-10T03:49:57;28.48;;;14.50;;
78612;SDS011;67933;51.060;3.638;2023-05-10T03:52:22;31.88;;;13.65;;
78612;SDS011;67933;51.060;3.638;2023-05-10T03:54:48;30.05;;;12.93;;
78612;SDS011;67933;51.060;3.638;2023-05-10T03:57:13;32.67;;;13.65;;
78612;SDS011;67933;51.060;3.638;2023-05-10T03:59:38;33.78;;;14.25;;
78612;SDS011;67933;51.060;3.638;2023-05-10T04:02:04;32.70;;;14.30;;
78612;SDS011;67933;51.060;3.638;2023-05-10T04:04:30;38.47;;;16.42;;
78612;SDS011;67933;51.060;3.638;2023-05-10T04:06:55;41.40;;;16.77;;
78612;SDS011;67933;51.060;3.638;2023-05-10T04:09:20;35.88;;;15.80;;
78612;SDS011;67933;51.060;3.638;2023-05-10T04:11:46;35.70;;;16.08;;
78612;SDS011;67933;51.060;3.638;2023-05-10T04:14:11;40.17;;;18.13;;
78612;SDS011;67933;51.060;3.638;2023-05-10T04:16:36;46.15;;;17.15;;
78612;SDS011;67933;51.060;3.638;2023-05-10T04:19:02;36.63;;;17.02;;
78612;SDS011;67933;51.060;3.638;2023-05-10T04:21:28;40.38;;;17.55;;
78612;SDS011;67933;51.060;3.638;2023-05-10T04:23:53;49.97;;;17.75;;
78612;SDS011;67933;51.060;3.638;2023-05-10T04:26:18;42.05;;;18.40;;
78612;SDS011;67933;51.060;3.638;2023-05-10T04:28:45;41.65;;;17.73;;
78612;SDS011;67933;51.060;3.638;2023-05-10T04:31:10;44.80;;;18.08;;
78612;SDS011;67933;51.060;3.638;2023-05-10T04:33:36;45.60;;;16.77;;
78612;SDS011;67933;51.060;3.638;2023-05-10T04:36:02;50.92;;;18.98;;
78612;SDS011;67933;51.060;3.638;2023-05-10T04:38:28;46.13;;;18.60;;
78612;SDS011;67933;51.060;3.638;2023-05-10T04:40:54;45.00;;;18.00;;
78612;SDS011;67933;51.060;3.638;2023-05-10T04:43:19;42.00;;;16.75;;
78612;SDS011;67933;51.060;3.638;2023-05-10T04:45:45;42.45;;;17.17;;
78612;SDS011;67933;51.060;3.638;2023-05-10T04:48:11;45.20;;;18.83;;
78612;SDS011;67933;51.060;3.638;2023-05-10T04:50:36;45.47;;;19.98;;
78612;SDS011;67933;51.060;3.638;2023-05-10T04:53:01;46.92;;;20.90;;
78612;SDS011;67933;51.060;3.638;2023-05-10T04:55:27;48.65;;;18.30;;
78612;SDS011;67933;51.060;3.638;2023-05-10T04:57:52;44.60;;;18.05;;
78612;SDS011;67933;51.060;3.638;2023-05-10T05:00:21;41.55;;;18.23;;
78612;SDS011;67933;51.060;3.638;2023-05-10T05:02:47;48.40;;;18.17;;
78612;SDS011;67933;51.060;3.638;2023-05-10T05:05:12;42.45;;;19.38;;
78612;SDS011;67933;51.060;3.638;2023-05-10T05:07:38;38.38;;;18.60;;
78612;SDS011;67933;51.060;3.638;2023-05-10T05:10:05;43.45;;;18.45;;
78612;SDS011;67933;51.060;3.638;2023-05-10T05:12:31;45.75;;;18.05;;
78612;SDS011;67933;51.060;3.638;2023-05-10T05:14:56;47.92;;;18.80;;
78612;SDS011;67933;51.060;3.638;2023-05-10T05:17:22;43.75;;;18.67;;
78612;SDS011;67933;51.060;3.638;2023-05-10T05:19:47;42.13;;;18.13;;
78612;SDS011;67933;51.060;3.638;2023-05-10T05:22:13;41.88;;;17.58;;
78612;SDS011;67933;51.060;3.638;2023-05-10T05:24:38;49.58;;;19.30;;
78612;SDS011;67933;51.060;3.638;2023-05-10T05:27:05;42.13;;;18.05;;
78612;SDS011;67933;51.060;3.638;2023-05-10T05:29:31;40.10;;;17.42;;
78612;SDS011;67933;51.060;3.638;2023-05-10T05:31:56;36.70;;;17.27;;
78612;SDS011;67933;51.060;3.638;2023-05-10T05:34:21;39.70;;;18.35;;
78612;SDS011;67933;51.060;3.638;2023-05-10T05:36:47;41.60;;;18.48;;
78612;SDS011;67933;51.060;3.638;2023-05-10T05:39:13;39.00;;;16.80;;
78612;SDS011;67933;51.060;3.638;2023-05-10T05:41:39;35.17;;;16.77;;
78612;SDS011;67933;51.060;3.638;2023-05-10T05:44:04;39.10;;;16.95;;
78612;SDS011;67933;51.060;3.638;2023-05-10T05:46:30;38.88;;;16.63;;
78612;SDS011;67933;51.060;3.638;2023-05-10T05:48:55;35.45;;;17.23;;
78612;SDS011;67933;51.060;3.638;2023-05-10T05:51:21;40.50;;;18.17;;
78612;SDS011;67933;51.060;3.638;2023-05-10T05:53:47;41.20;;;17.45;;
78612;SDS011;67933;51.060;3.638;2023-05-10T05:56:12;42.08;;;19.20;;
78612;SDS011;67933;51.060;3.638;2023-05-10T05:58:37;40.20;;;18.65;;
78612;SDS011;67933;51.060;3.638;2023-05-10T06:01:03;41.70;;;19.88;;
78612;SDS011;67933;51.060;3.638;2023-05-10T06:03:29;41.40;;;19.15;;
78612;SDS011;67933;51.060;3.638;2023-05-10T06:05:54;51.08;;;20.58;;
78612;SDS011;67933;51.060;3.638;2023-05-10T06:08:20;47.78;;;18.85;;
78612;SDS011;67933;51.060;3.638;2023-05-10T06:10:45;39.20;;;17.42;;
78612;SDS011;67933;51.060;3.638;2023-05-10T06:13:11;44.15;;;19.52;;
78612;SDS011;67933;51.060;3.638;2023-05-10T06:15:36;46.10;;;20.02;;
78612;SDS011;67933;51.060;3.638;2023-05-10T06:18:02;45.10;;;20.50;;
78612;SDS011;67933;51.060;3.638;2023-05-10T06:20:28;50.33;;;21.00;;
78612;SDS011;67933;51.060;3.638;2023-05-10T06:22:53;51.72;;;19.50;;
78612;SDS011;67933;51.060;3.638;2023-05-10T06:25:19;44.83;;;20.17;;
78612;SDS011;67933;51.060;3.638;2023-05-10T06:27:44;46.35;;;19.80;;
78612;SDS011;67933;51.060;3.638;2023-05-10T06:30:10;53.42;;;23.25;;
78612;SDS011;67933;51.060;3.638;2023-05-10T06:32:38;49.28;;;21.13;;
78612;SDS011;67933;51.060;3.638;2023-05-10T06:35:03;51.55;;;21.75;;
78612;SDS011;67933;51.060;3.638;2023-05-10T06:37:29;42.78;;;19.85;;
78612;SDS011;67933;51.060;3.638;2023-05-10T06:39:54;41.65;;;17.48;;
78612;SDS011;67933;51.060;3.638;2023-05-10T06:42:21;37.10;;;17.33;;
78612;SDS011;67933;51.060;3.638;2023-05-10T06:44:46;38.78;;;18.65;;
78612;SDS011;67933;51.060;3.638;2023-05-10T06:47:12;43.00;;;19.85;;
78612;SDS011;67933;51.060;3.638;2023-05-10T06:49:37;41.25;;;18.88;;
78612;SDS011;67933;51.060;3.638;2023-05-10T06:52:03;50.88;;;21.35;;
78612;SDS011;67933;51.060;3.638;2023-05-10T06:54:29;45.75;;;20.77;;
78612;SDS011;67933;51.060;3.638;2023-05-10T06:56:54;42.15;;;18.33;;
78612;SDS011;67933;51.060;3.638;2023-05-10T06:59:19;39.90;;;17.05;;
78612;SDS011;67933;51.060;3.638;2023-05-10T07:01:46;44.28;;;18.35;;
78612;SDS011;67933;51.060;3.638;2023-05-10T07:04:12;44.47;;;18.70;;
78612;SDS011;67933;51.060;3.638;2023-05-10T07:06:37;41.42;;;18.90;;
78612;SDS011;67933;51.060;3.638;2023-05-10T07:09:03;40.92;;;18.40;;
78612;SDS011;67933;51.060;3.638;2023-05-10T07:11:28;41.30;;;18.88;;
78612;SDS011;67933;51.060;3.638;2023-05-10T07:13:54;45.67;;;19.77;;
78612;SDS011;67933;51.060;3.638;2023-05-10T07:16:19;43.03;;;17.67;;
78612;SDS011;67933;51.060;3.638;2023-05-10T07:18:44;42.33;;;19.40;;
78612;SDS011;67933;51.060;3.638;2023-05-10T07:21:10;42.22;;;17.80;;
78612;SDS011;67933;51.060;3.638;2023-05-10T07:23:35;50.50;;;19.77;;
78612;SDS011;67933;51.060;3.638;2023-05-10T07:26:01;43.05;;;17.80;;
78612;SDS011;67933;51.060;3.638;2023-05-10T07:28:27;37.08;;;16.75;;
78612;SDS011;67933;51.060;3.638;2023-05-10T07:30:52;36.92;;;15.88;;
78612;SDS011;67933;51.060;3.638;2023-05-10T07:33:18;37.97;;;16.08;;
78612;SDS011;67933;51.060;3.638;2023-05-10T07:35:43;39.03;;;17.23;;
78612;SDS011;67933;51.060;3.638;2023-05-10T07:38:09;35.75;;;16.83;;
78612;SDS011;67933;51.060;3.638;2023-05-10T07:40:36;37.05;;;15.40;;
78612;SDS011;67933;51.060;3.638;2023-05-10T07:43:01;33.53;;;15.27;;
78612;SDS011;67933;51.060;3.638;2023-05-10T07:45:27;29.15;;;13.38;;
78612;SDS011;67933;51.060;3.638;2023-05-10T07:47:53;29.92;;;13.50;;
78612;SDS011;67933;51.060;3.638;2023-05-10T07:50:18;26.17;;;13.52;;
78612;SDS011;67933;51.060;3.638;2023-05-10T07:52:44;22.83;;;11.20;;
78612;SDS011;67933;51.060;3.638;2023-05-10T07:55:09;24.40;;;12.75;;
78612;SDS011;67933;51.060;3.638;2023-05-10T07:57:35;26.77;;;12.73;;
78612;SDS011;67933;51.060;3.638;2023-05-10T08:00:00;25.42;;;11.80;;
78612;SDS011;67933;51.060;3.638;2023-05-10T08:02:26;25.50;;;12.68;;
78612;SDS011;67933;51.060;3.638;2023-05-10T08:04:51;25.55;;;12.85;;
78612;SDS011;67933;51.060;3.638;2023-05-10T08:07:17;24.85;;;13.13;;
78612;SDS011;67933;51.060;3.638;2023-05-10T08:09:43;26.92;;;13.15;;
78612;SDS011;67933;51.060;3.638;2023-05-10T08:12:08;24.15;;;13.38;;
78612;SDS011;67933;51.060;3.638;2023-05-10T08:14:34;27.30;;;12.52;;
78612;SDS011;67933;51.060;3.638;2023-05-10T08:17:01;22.77;;;13.00;;
78612;SDS011;67933;51.060;3.638;2023-05-10T08:19:28;30.83;;;15.20;;
78612;SDS011;67933;51.060;3.638;2023-05-10T08:21:53;27.85;;;13.65;;
78612;SDS011;67933;51.060;3.638;2023-05-10T08:24:20;23.90;;;11.60;;
78612;SDS011;67933;51.060;3.638;2023-05-10T08:26:46;21.83;;;12.38;;
78612;SDS011;67933;51.060;3.638;2023-05-10T08:29:12;27.05;;;12.57;;
78612;SDS011;67933;51.060;3.638;2023-05-10T08:31:38;22.75;;;11.38;;
78612;SDS011;67933;51.060;3.638;2023-05-10T08:34:03;27.83;;;12.38;;
78612;SDS011;67933;51.060;3.638;2023-05-10T08:36:29;22.25;;;11.57;;
78612;SDS011;67933;51.060;3.638;2023-05-10T08:38:54;26.40;;;12.55;;
78612;SDS011;67933;51.060;3.638;2023-05-10T08:41:20;23.45;;;11.25;;
78612;SDS011;67933;51.060;3.638;2023-05-10T08:43:49;21.85;;;11.15;;
78612;SDS011;67933;51.060;3.638;2023-05-10T08:46:16;27.95;;;12.73;;
78612;SDS011;67933;51.060;3.638;2023-05-10T08:48:44;24.70;;;11.00;;
78612;SDS011;67933;51.060;3.638;2023-05-10T08:51:14;26.55;;;12.20;;
78612;SDS011;67933;51.060;3.638;2023-05-10T08:53:42;22.83;;;12.65;;
78612;SDS011;67933;51.060;3.638;2023-05-10T08:56:09;22.90;;;11.85;;
78612;SDS011;67933;51.060;3.638;2023-05-10T08:58:34;21.90;;;11.88;;
78612;SDS011;67933;51.060;3.638;2023-05-10T09:01:00;22.95;;;11.95;;
78612;SDS011;67933;51.060;3.638;2023-05-10T09:03:26;22.40;;;12.30;;
78612;SDS011;67933;51.060;3.638;2023-05-10T09:05:51;23.52;;;12.00;;
78612;SDS011;67933;51.060;3.638;2023-05-10T09:08:17;24.92;;;12.18;;
78612;SDS011;67933;51.060;3.638;2023-05-10T09:10:43;20.30;;;11.25;;
78612;SDS011;67933;51.060;3.638;2023-05-10T09:13:09;20.38;;;11.48;;
78612;SDS011;67933;51.060;3.638;2023-05-10T09:15:36;19.80;;;11.07;;
78612;SDS011;67933;51.060;3.638;2023-05-10T09:18:02;17.90;;;10.55;;
78612;SDS011;67933;51.060;3.638;2023-05-10T09:20:27;16.80;;;10.32;;
78612;SDS011;67933;51.060;3.638;2023-05-10T09:22:53;17.35;;;9.90;;
78612;SDS011;67933;51.060;3.638;2023-05-10T09:25:19;16.23;;;10.35;;
78612;SDS011;67933;51.060;3.638;2023-05-10T09:27:45;16.75;;;9.98;;
78612;SDS011;67933;51.060;3.638;2023-05-10T09:30:23;19.38;;;11.20;;
78612;SDS011;67933;51.060;3.638;2023-05-10T09:32:53;23.40;;;12.15;;
78612;SDS011;67933;51.060;3.638;2023-05-10T09:35:21;24.95;;;12.57;;
78612;SDS011;67933;51.060;3.638;2023-05-10T09:37:51;28.85;;;13.85;;
78612;SDS011;67933;51.060;3.638;2023-05-10T09:40:23;21.88;;;11.18;;
78612;SDS011;67933;51.060;3.638;2023-05-10T09:43:08;20.83;;;11.00;;
78612;SDS011;67933;51.060;3.638;2023-05-10T09:45:34;22.35;;;12.32;;
78612;SDS011;67933;51.060;3.638;2023-05-10T09:48:01;24.75;;;11.80;;
78612;SDS011;67933;51.060;3.638;2023-05-10T09:50:28;19.15;;;10.70;;
78612;SDS011;67933;51.060;3.638;2023-05-10T09:52:55;19.27;;;9.93;;
78612;SDS011;67933;51.060;3.638;2023-05-10T09:55:46;16.23;;;9.90;;
78612;SDS011;67933;51.060;3.638;2023-05-10T09:58:12;19.75;;;10.75;;
78612;SDS011;67933;51.060;3.638;2023-05-10T10:00:39;21.35;;;10.95;;
78612;SDS011;67933;51.060;3.638;2023-05-10T10:03:06;20.70;;;11.25;;
78612;SDS011;67933;51.060;3.638;2023-05-10T10:05:36;20.58;;;11.15;;
78612;SDS011;67933;51.060;3.638;2023-05-10T10:08:05;20.65;;;11.20;;
78612;SDS011;67933;51.060;3.638;2023-05-10T10:10:32;16.70;;;10.95;;
78612;SDS011;67933;51.060;3.638;2023-05-10T10:12:58;19.25;;;10.55;;
78612;SDS011;67933;51.060;3.638;2023-05-10T10:15:24;22.55;;;11.05;;
78612;SDS011;67933;51.060;3.638;2023-05-10T10:17:51;18.38;;;11.30;;
78612;SDS011;67933;51.060;3.638;2023-05-10T10:20:18;17.92;;;10.18;;
78612;SDS011;67933;51.060;3.638;2023-05-10T10:22:45;16.85;;;10.68;;
78612;SDS011;67933;51.060;3.638;2023-05-10T10:25:12;18.30;;;10.50;;
78612;SDS011;67933;51.060;3.638;2023-05-10T10:30:28;20.88;;;11.45;;
78612;SDS011;67933;51.060;3.638;2023-05-10T10:35:39;15.88;;;9.90;;
78612;SDS011;67933;51.060;3.638;2023-05-10T10:38:05;19.08;;;10.98;;
78612;SDS011;67933;51.060;3.638;2023-05-10T10:40:33;21.98;;;12.55;;
78612;SDS011;67933;51.060;3.638;2023-05-10T10:45:48;17.30;;;11.75;;
78612;SDS011;67933;51.060;3.638;2023-05-10T10:48:38;25.00;;;12.45;;
78612;SDS011;67933;51.060;3.638;2023-05-10T10:51:03;24.60;;;13.63;;
78612;SDS011;67933;51.060;3.638;2023-05-10T10:53:30;25.67;;;14.00;;
78612;SDS011;67933;51.060;3.638;2023-05-10T10:56:06;24.48;;;12.98;;
78612;SDS011;67933;51.060;3.638;2023-05-10T10:58:34;21.42;;;13.32;;
78612;SDS011;67933;51.060;3.638;2023-05-10T11:01:18;26.60;;;14.45;;
78612;SDS011;67933;51.060;3.638;2023-05-10T11:08:58;31.30;;;16.15;;
78612;SDS011;67933;51.060;3.638;2023-05-10T11:11:24;27.77;;;15.23;;
78612;SDS011;67933;51.060;3.638;2023-05-10T11:13:50;31.70;;;15.95;;
78612;SDS011;67933;51.060;3.638;2023-05-10T11:19:01;32.88;;;17.65;;
78612;SDS011;67933;51.060;3.638;2023-05-10T11:21:32;36.58;;;17.45;;
78612;SDS011;67933;51.060;3.638;2023-05-10T11:23:59;34.20;;;17.67;;
78612;SDS011;67933;51.060;3.638;2023-05-10T11:26:30;32.55;;;17.33;;
78612;SDS011;67933;51.060;3.638;2023-05-10T11:28:56;29.50;;;16.33;;
78612;SDS011;67933;51.060;3.638;2023-05-10T11:31:23;31.65;;;15.95;;
78612;SDS011;67933;51.060;3.638;2023-05-10T11:33:52;32.00;;;17.27;;
78612;SDS011;67933;51.060;3.638;2023-05-10T11:36:23;34.70;;;17.70;;
78612;SDS011;67933;51.060;3.638;2023-05-10T11:38:50;29.98;;;17.15;;
78612;SDS011;67933;51.060;3.638;2023-05-10T11:41:17;27.75;;;16.48;;
78612;SDS011;67933;51.060;3.638;2023-05-10T11:43:43;31.35;;;17.40;;
78612;SDS011;67933;51.060;3.638;2023-05-10T11:46:12;30.20;;;16.13;;
78612;SDS011;67933;51.060;3.638;2023-05-10T11:48:38;30.83;;;16.05;;
78612;SDS011;67933;51.060;3.638;2023-05-10T11:51:04;27.88;;;14.60;;
78612;SDS011;67933;51.060;3.638;2023-05-10T11:53:31;24.63;;;15.13;;
78612;SDS011;67933;51.060;3.638;2023-05-10T11:56:08;28.52;;;16.08;;
78612;SDS011;67933;51.060;3.638;2023-05-10T11:58:34;27.88;;;15.85;;
78612;SDS011;67933;51.060;3.638;2023-05-10T12:01:01;26.45;;;15.68;;
78612;SDS011;67933;51.060;3.638;2023-05-10T12:03:27;30.30;;;16.50;;
78612;SDS011;67933;51.060;3.638;2023-05-10T12:05:54;23.70;;;13.35;;
78612;SDS011;67933;51.060;3.638;2023-05-10T12:08:21;25.63;;;14.88;;
78612;SDS011;67933;51.060;3.638;2023-05-10T12:13:13;25.30;;;13.07;;
78612;SDS011;67933;51.060;3.638;2023-05-10T12:15:40;25.70;;;13.70;;
78612;SDS011;67933;51.060;3.638;2023-05-10T12:18:07;28.30;;;14.88;;
78612;SDS011;67933;51.060;3.638;2023-05-10T12:20:35;26.25;;;14.63;;
78612;SDS011;67933;51.060;3.638;2023-05-10T12:23:01;32.03;;;14.80;;
78612;SDS011;67933;51.060;3.638;2023-05-10T12:25:35;34.70;;;16.52;;
78612;SDS011;67933;51.060;3.638;2023-05-10T12:28:05;31.08;;;15.02;;
78612;SDS011;67933;51.060;3.638;2023-05-10T12:30:32;30.70;;;15.32;;
78612;SDS011;67933;51.060;3.638;2023-05-10T12:33:11;33.95;;;17.02;;
78612;SDS011;67933;51.060;3.638;2023-05-10T12:35:51;31.38;;;16.05;;
78612;SDS011;67933;51.060;3.638;2023-05-10T12:40:54;33.85;;;16.60;;
78612;SDS011;67933;51.060;3.638;2023-05-10T12:43:20;30.95;;;15.85;;
78612;SDS011;67933;51.060;3.638;2023-05-10T12:45:47;35.35;;;16.92;;
78612;SDS011;67933;51.060;3.638;2023-05-10T12:48:14;33.17;;;17.25;;
78612;SDS011;67933;51.060;3.638;2023-05-10T12:50:40;34.20;;;17.35;;
78612;SDS011;67933;51.060;3.638;2023-05-10T12:53:05;36.00;;;16.88;;
78612;SDS011;67933;51.060;3.638;2023-05-10T12:55:31;33.33;;;17.38;;
78612;SDS011;67933;51.060;3.638;2023-05-10T12:57:56;35.17;;;17.48;;
78612;SDS011;67933;51.060;3.638;2023-05-10T13:00:22;36.65;;;17.00;;
78612;SDS011;67933;51.060;3.638;2023-05-10T13:02:47;34.67;;;17.83;;
78612;SDS011;67933;51.060;3.638;2023-05-10T13:05:13;34.95;;;18.23;;
78612;SDS011;67933;51.060;3.638;2023-05-10T13:07:38;35.47;;;18.30;;
78612;SDS011;67933;51.060;3.638;2023-05-10T13:10:04;36.25;;;18.05;;
78612;SDS011;67933;51.060;3.638;2023-05-10T13:12:33;30.25;;;17.67;;
78612;SDS011;67933;51.060;3.638;2023-05-10T13:14:58;32.63;;;18.45;;
78612;SDS011;67933;51.060;3.638;2023-05-10T13:17:24;36.30;;;18.67;;
78612;SDS011;67933;51.060;3.638;2023-05-10T13:19:50;35.88;;;18.90;;
78612;SDS011;67933;51.060;3.638;2023-05-10T13:22:16;40.40;;;20.83;;
78612;SDS011;67933;51.060;3.638;2023-05-10T13:24:41;37.03;;;19.20;;
78612;SDS011;67933;51.060;3.638;2023-05-10T13:27:06;31.90;;;16.38;;
78612;SDS011;67933;51.060;3.638;2023-05-10T13:29:32;27.45;;;16.75;;
78612;SDS011;67933;51.060;3.638;2023-05-10T13:31:58;28.35;;;16.52;;
78612;SDS011;67933;51.060;3.638;2023-05-10T13:34:23;24.88;;;16.02;;
78612;SDS011;67933;51.060;3.638;2023-05-10T13:36:49;25.45;;;15.95;;
78612;SDS011;67933;51.060;3.638;2023-05-10T13:39:15;25.73;;;14.18;;
78612;SDS011;67933;51.060;3.638;2023-05-10T13:41:40;27.35;;;15.25;;
78612;SDS011;67933;51.060;3.638;2023-05-10T13:44:06;24.20;;;14.18;;
78612;SDS011;67933;51.060;3.638;2023-05-10T13:46:31;22.40;;;12.23;;
78612;SDS011;67933;51.060;3.638;2023-05-10T13:48:57;23.40;;;13.10;;
78612;SDS011;67933;51.060;3.638;2023-05-10T13:51:22;21.02;;;13.02;;
78612;SDS011;67933;51.060;3.638;2023-05-10T13:53:48;24.27;;;14.20;;
78612;SDS011;67933;51.060;3.638;2023-05-10T13:56:13;19.05;;;13.23;;
78612;SDS011;67933;51.060;3.638;2023-05-10T13:58:39;21.83;;;12.15;;
78612;SDS011;67933;51.060;3.638;2023-05-10T14:01:05;20.60;;;9.80;;
78612;SDS011;67933;51.060;3.638;2023-05-10T14:03:31;15.00;;;9.38;;
78612;SDS011;67933;51.060;3.638;2023-05-10T14:05:57;14.77;;;9.07;;
78612;SDS011;67933;51.060;3.638;2023-05-10T14:08:23;17.13;;;8.18;;
78612;SDS011;67933;51.060;3.638;2023-05-10T14:10:48;14.63;;;8.88;;
78612;SDS011;67933;51.060;3.638;2023-05-10T14:13:14;16.08;;;8.75;;
78612;SDS011;67933;51.060;3.638;2023-05-10T14:15:40;16.42;;;9.57;;
78612;SDS011;67933;51.060;3.638;2023-05-10T14:18:06;16.85;;;9.45;;
78612;SDS011;67933;51.060;3.638;2023-05-10T14:20:31;18.67;;;8.85;;
78612;SDS011;67933;51.060;3.638;2023-05-10T14:22:58;17.25;;;7.82;;
78612;SDS011;67933;51.060;3.638;2023-05-10T14:25:24;18.40;;;8.60;;
78612;SDS011;67933;51.060;3.638;2023-05-10T14:27:50;11.32;;;6.65;;
78612;SDS011;67933;51.060;3.638;2023-05-10T14:30:15;11.77;;;5.90;;
78612;SDS011;67933;51.060;3.638;2023-05-10T14:32:41;16.52;;;6.70;;
78612;SDS011;67933;51.060;3.638;2023-05-10T14:35:06;14.48;;;6.32;;
78612;SDS011;67933;51.060;3.638;2023-05-10T14:37:32;14.75;;;6.78;;
78612;SDS011;67933;51.060;3.638;2023-05-10T14:39:58;11.60;;;4.93;;
78612;SDS011;67933;51.060;3.638;2023-05-10T14:42:23;14.30;;;5.30;;
78612;SDS011;67933;51.060;3.638;2023-05-10T14:44:48;11.27;;;4.32;;
78612;SDS011;67933;51.060;3.638;2023-05-10T14:47:14;12.20;;;4.30;;
78612;SDS011;67933;51.060;3.638;2023-05-10T14:49:39;8.75;;;4.07;;
78612;SDS011;67933;51.060;3.638;2023-05-10T14:52:05;14.85;;;4.80;;
78612;SDS011;67933;51.060;3.638;2023-05-10T14:54:31;9.95;;;3.22;;
78612;SDS011;67933;51.060;3.638;2023-05-10T14:56:58;8.68;;;3.67;;
78612;SDS011;67933;51.060;3.638;2023-05-10T14:59:24;10.20;;;3.03;;
78612;SDS011;67933;51.060;3.638;2023-05-10T15:01:49;8.73;;;3.08;;
78612;SDS011;67933;51.060;3.638;2023-05-10T15:04:14;11.23;;;3.17;;